sensor_id;sensor_type;location;lat;lon;timestamp;temperature;humidity
3996;DHT22;2012;49.794;9.722;2024-01-30T00:00:26;1.10;99.90
3996;DHT22;2012;49.794;9.722;2024-01-30T00:02:53;1.10;99.90
3996;DHT22;2012;49.794;9.722;2024-01-30T00:05:20;1.10;99.90
3996;DHT22;2012;49.794;9.722;2024-01-30T00:07:46;1.10;99.90
3996;DHT22;2012;49.794;9.722;2024-01-30T00:10:13;1.00;99.90
3996;DHT22;2012;49.794;9.722;2024-01-30T00:12:40;1.00;99.90
3996;DHT22;2012;49.794;9.722;2024-01-30T00:15:07;1.00;99.90
3996;DHT22;2012;49.794;9.722;2024-01-30T00:17:37;1.00;99.90
3996;DHT22;2012;49.794;9.722;2024-01-30T00:20:04;1.10;99.90
3996;DHT22;2012;49.794;9.722;2024-01-30T00:22:36;1.00;99.90
3996;DHT22;2012;49.794;9.722;2024-01-30T00:25:03;1.00;99.90
3996;DHT22;2012;49.794;9.722;2024-01-30T00:27:30;1.00;99.90
3996;DHT22;2012;49.794;9.722;2024-01-30T00:29:56;1.00;99.90
3996;DHT22;2012;49.794;9.722;2024-01-30T00:32:23;0.90;99.90
3996;DHT22;2012;49.794;9.722;2024-01-30T00:34:50;0.90;99.90
3996;DHT22;2012;49.794;9.722;2024-01-30T00:37:18;0.90;99.90
3996;DHT22;2012;49.794;9.722;2024-01-30T00:39:45;0.90;99.90
3996;DHT22;2012;49.794;9.722;2024-01-30T00:42:12;1.00;99.90
3996;DHT22;2012;49.794;9.722;2024-01-30T00:44:38;0.90;99.90
3996;DHT22;2012;49.794;9.722;2024-01-30T00:47:06;0.80;99.90
3996;DHT22;2012;49.794;9.722;2024-01-30T00:49:33;0.90;99.90
3996;DHT22;2012;49.794;9.722;2024-01-30T00:52:01;1.00;99.90
3996;DHT22;2012;49.794;9.722;2024-01-30T00:54:28;0.90;99.90
3996;DHT22;2012;49.794;9.722;2024-01-30T00:56:55;0.90;99.90
3996;DHT22;2012;49.794;9.722;2024-01-30T00:59:22;0.90;99.90
3996;DHT22;2012;49.794;9.722;2024-01-30T01:01:48;0.80;99.90
3996;DHT22;2012;49.794;9.722;2024-01-30T01:04:16;0.90;99.90
3996;DHT22;2012;49.794;9.722;2024-01-30T01:06:44;0.90;99.90
3996;DHT22;2012;49.794;9.722;2024-01-30T01:09:11;0.80;99.90
3996;DHT22;2012;49.794;9.722;2024-01-30T01:11:39;0.80;99.90
3996;DHT22;2012;49.794;9.722;2024-01-30T01:14:06;0.80;99.90
3996;DHT22;2012;49.794;9.722;2024-01-30T01:16:33;0.80;99.90
3996;DHT22;2012;49.794;9.722;2024-01-30T01:19:00;0.80;99.90
3996;DHT22;2012;49.794;9.722;2024-01-30T01:21:27;0.90;99.90
3996;DHT22;2012;49.794;9.722;2024-01-30T01:23:54;0.90;99.90
3996;DHT22;2012;49.794;9.722;2024-01-30T01:26:21;1.00;99.90
3996;DHT22;2012;49.794;9.722;2024-01-30T01:28:48;0.80;99.90
3996;DHT22;2012;49.794;9.722;2024-01-30T01:31:15;0.80;99.90
3996;DHT22;2012;49.794;9.722;2024-01-30T01:33:42;0.80;99.90
3996;DHT22;2012;49.794;9.722;2024-01-30T01:36:09;0.90;99.90
3996;DHT22;2012;49.794;9.722;2024-01-30T01:38:36;0.90;99.90
3996;DHT22;2012;49.794;9.722;2024-01-30T01:41:03;0.90;99.90
3996;DHT22;2012;49.794;9.722;2024-01-30T01:43:30;0.90;99.90
3996;DHT22;2012;49.794;9.722;2024-01-30T01:45:57;0.90;99.90
3996;DHT22;2012;49.794;9.722;2024-01-30T01:48:24;0.80;99.90
3996;DHT22;2012;49.794;9.722;2024-01-30T01:50:52;0.80;99.90
3996;DHT22;2012;49.794;9.722;2024-01-30T01:53:19;0.80;99.90
3996;DHT22;2012;49.794;9.722;2024-01-30T01:55:47;0.80;99.90
3996;DHT22;2012;49.794;9.722;2024-01-30T01:58:14;0.80;99.90
3996;DHT22;2012;49.794;9.722;2024-01-30T02:00:42;0.80;99.90
3996;DHT22;2012;49.794;9.722;2024-01-30T02:03:10;0.70;99.90
3996;DHT22;2012;49.794;9.722;2024-01-30T02:05:39;0.80;99.90
3996;DHT22;2012;49.794;9.722;2024-01-30T02:08:08;0.90;99.90
3996;DHT22;2012;49.794;9.722;2024-01-30T02:10:35;0.70;99.90
3996;DHT22;2012;49.794;9.722;2024-01-30T02:13:02;0.80;99.90
3996;DHT22;2012;49.794;9.722;2024-01-30T02:15:29;0.80;99.90
3996;DHT22;2012;49.794;9.722;2024-01-30T02:17:56;0.80;99.90
3996;DHT22;2012;49.794;9.722;2024-01-30T02:20:25;0.80;99.90
3996;DHT22;2012;49.794;9.722;2024-01-30T02:22:54;0.70;99.90
3996;DHT22;2012;49.794;9.722;2024-01-30T02:25:38;0.80;99.90
3996;DHT22;2012;49.794;9.722;2024-01-30T02:28:05;0.80;99.90
3996;DHT22;2012;49.794;9.722;2024-01-30T02:30:32;0.70;99.90
3996;DHT22;2012;49.794;9.722;2024-01-30T02:32:59;0.50;99.90
3996;DHT22;2012;49.794;9.722;2024-01-30T02:35:26;0.70;99.90
3996;DHT22;2012;49.794;9.722;2024-01-30T02:37:53;0.70;99.90
3996;DHT22;2012;49.794;9.722;2024-01-30T02:40:20;0.70;99.90
3996;DHT22;2012;49.794;9.722;2024-01-30T02:42:47;0.70;99.90
3996;DHT22;2012;49.794;9.722;2024-01-30T02:45:14;0.80;99.90
3996;DHT22;2012;49.794;9.722;2024-01-30T02:47:41;0.70;99.90
3996;DHT22;2012;49.794;9.722;2024-01-30T02:50:08;0.70;99.90
3996;DHT22;2012;49.794;9.722;2024-01-30T02:52:35;0.70;99.90
3996;DHT22;2012;49.794;9.722;2024-01-30T02:55:02;0.60;99.90
3996;DHT22;2012;49.794;9.722;2024-01-30T02:57:29;0.60;99.90
3996;DHT22;2012;49.794;9.722;2024-01-30T02:59:56;0.60;99.90
3996;DHT22;2012;49.794;9.722;2024-01-30T03:02:23;0.50;99.90
3996;DHT22;2012;49.794;9.722;2024-01-30T03:04:50;0.50;99.90
3996;DHT22;2012;49.794;9.722;2024-01-30T03:07:17;0.40;99.90
3996;DHT22;2012;49.794;9.722;2024-01-30T03:09:44;0.40;99.90
3996;DHT22;2012;49.794;9.722;2024-01-30T03:12:11;0.50;99.90
3996;DHT22;2012;49.794;9.722;2024-01-30T03:14:38;0.50;99.90
3996;DHT22;2012;49.794;9.722;2024-01-30T03:17:04;0.50;99.90
3996;DHT22;2012;49.794;9.722;2024-01-30T03:19:31;0.50;99.90
3996;DHT22;2012;49.794;9.722;2024-01-30T03:21:59;0.60;99.90
3996;DHT22;2012;49.794;9.722;2024-01-30T03:24:26;0.50;99.90
3996;DHT22;2012;49.794;9.722;2024-01-30T03:26:53;0.50;99.90
3996;DHT22;2012;49.794;9.722;2024-01-30T03:29:20;0.60;99.90
3996;DHT22;2012;49.794;9.722;2024-01-30T03:31:47;0.50;99.90
3996;DHT22;2012;49.794;9.722;2024-01-30T03:34:14;0.50;99.90
3996;DHT22;2012;49.794;9.722;2024-01-30T03:36:41;0.50;99.90
3996;DHT22;2012;49.794;9.722;2024-01-30T03:39:08;0.40;99.90
3996;DHT22;2012;49.794;9.722;2024-01-30T03:41:35;0.40;99.90
3996;DHT22;2012;49.794;9.722;2024-01-30T03:44:02;0.40;99.90
3996;DHT22;2012;49.794;9.722;2024-01-30T03:46:29;0.50;99.90
3996;DHT22;2012;49.794;9.722;2024-01-30T03:48:55;0.50;99.90
3996;DHT22;2012;49.794;9.722;2024-01-30T03:51:23;0.40;99.90
3996;DHT22;2012;49.794;9.722;2024-01-30T03:53:49;0.40;99.90
3996;DHT22;2012;49.794;9.722;2024-01-30T03:56:16;0.40;99.90
3996;DHT22;2012;49.794;9.722;2024-01-30T03:58:43;0.40;99.90
3996;DHT22;2012;49.794;9.722;2024-01-30T04:01:14;0.40;99.90
3996;DHT22;2012;49.794;9.722;2024-01-30T04:03:41;0.40;99.90
3996;DHT22;2012;49.794;9.722;2024-01-30T04:06:10;0.40;99.90
3996;DHT22;2012;49.794;9.722;2024-01-30T04:08:37;0.40;99.90
3996;DHT22;2012;49.794;9.722;2024-01-30T04:11:05;0.30;99.90
3996;DHT22;2012;49.794;9.722;2024-01-30T04:13:33;0.30;99.90
3996;DHT22;2012;49.794;9.722;2024-01-30T04:16:00;0.30;99.90
3996;DHT22;2012;49.794;9.722;2024-01-30T04:18:30;0.30;99.90
3996;DHT22;2012;49.794;9.722;2024-01-30T04:20:57;0.30;99.90
3996;DHT22;2012;49.794;9.722;2024-01-30T04:23:24;0.30;99.90
3996;DHT22;2012;49.794;9.722;2024-01-30T04:25:50;0.30;99.90
3996;DHT22;2012;49.794;9.722;2024-01-30T04:28:18;0.30;99.90
3996;DHT22;2012;49.794;9.722;2024-01-30T04:30:45;0.30;99.90
3996;DHT22;2012;49.794;9.722;2024-01-30T04:33:12;0.30;99.90
3996;DHT22;2012;49.794;9.722;2024-01-30T04:35:39;0.20;99.90
3996;DHT22;2012;49.794;9.722;2024-01-30T04:38:06;0.20;99.90
3996;DHT22;2012;49.794;9.722;2024-01-30T04:40:33;0.10;99.90
3996;DHT22;2012;49.794;9.722;2024-01-30T04:43:00;0.10;99.90
3996;DHT22;2012;49.794;9.722;2024-01-30T04:45:27;0.10;99.90
3996;DHT22;2012;49.794;9.722;2024-01-30T04:47:53;0.20;99.90
3996;DHT22;2012;49.794;9.722;2024-01-30T04:50:20;0.20;99.90
3996;DHT22;2012;49.794;9.722;2024-01-30T04:52:47;0.20;99.90
3996;DHT22;2012;49.794;9.722;2024-01-30T04:55:14;0.00;99.90
3996;DHT22;2012;49.794;9.722;2024-01-30T04:57:41;0.10;99.90
3996;DHT22;2012;49.794;9.722;2024-01-30T05:00:09;0.10;99.90
3996;DHT22;2012;49.794;9.722;2024-01-30T05:02:36;0.20;99.90
3996;DHT22;2012;49.794;9.722;2024-01-30T05:05:03;0.20;99.90
3996;DHT22;2012;49.794;9.722;2024-01-30T05:07:30;0.10;99.90
3996;DHT22;2012;49.794;9.722;2024-01-30T05:09:57;0.10;99.90
3996;DHT22;2012;49.794;9.722;2024-01-30T05:12:26;0.20;99.90
3996;DHT22;2012;49.794;9.722;2024-01-30T05:14:53;0.20;99.90
3996;DHT22;2012;49.794;9.722;2024-01-30T05:17:20;0.10;99.90
3996;DHT22;2012;49.794;9.722;2024-01-30T05:19:47;0.10;99.90
3996;DHT22;2012;49.794;9.722;2024-01-30T05:22:13;0.10;99.90
3996;DHT22;2012;49.794;9.722;2024-01-30T05:24:42;0.10;99.90
3996;DHT22;2012;49.794;9.722;2024-01-30T05:27:10;0.00;99.90
3996;DHT22;2012;49.794;9.722;2024-01-30T05:29:36;0.10;99.90
3996;DHT22;2012;49.794;9.722;2024-01-30T05:32:03;0.10;99.90
3996;DHT22;2012;49.794;9.722;2024-01-30T05:34:32;0.00;99.90
3996;DHT22;2012;49.794;9.722;2024-01-30T05:36:59;0.00;99.90
3996;DHT22;2012;49.794;9.722;2024-01-30T05:39:26;0.00;99.90
3996;DHT22;2012;49.794;9.722;2024-01-30T05:41:53;0.00;99.90
3996;DHT22;2012;49.794;9.722;2024-01-30T05:44:20;0.00;99.90
3996;DHT22;2012;49.794;9.722;2024-01-30T05:46:47;0.00;99.90
3996;DHT22;2012;49.794;9.722;2024-01-30T05:49:14;0.00;99.90
3996;DHT22;2012;49.794;9.722;2024-01-30T05:51:41;0.00;99.90
3996;DHT22;2012;49.794;9.722;2024-01-30T05:54:08;0.00;99.90
3996;DHT22;2012;49.794;9.722;2024-01-30T05:56:34;0.00;99.90
3996;DHT22;2012;49.794;9.722;2024-01-30T05:59:01;0.00;99.90
3996;DHT22;2012;49.794;9.722;2024-01-30T06:01:29;0.00;99.90
3996;DHT22;2012;49.794;9.722;2024-01-30T06:03:56;0.00;99.90
3996;DHT22;2012;49.794;9.722;2024-01-30T06:06:23;0.00;99.90
3996;DHT22;2012;49.794;9.722;2024-01-30T06:08:49;0.00;99.90
3996;DHT22;2012;49.794;9.722;2024-01-30T06:11:17;-0.20;99.90
3996;DHT22;2012;49.794;9.722;2024-01-30T06:13:43;-0.10;99.90
3996;DHT22;2012;49.794;9.722;2024-01-30T06:16:10;-0.10;99.90
3996;DHT22;2012;49.794;9.722;2024-01-30T06:18:38;-0.10;99.90
3996;DHT22;2012;49.794;9.722;2024-01-30T06:21:05;-0.10;99.90
3996;DHT22;2012;49.794;9.722;2024-01-30T06:23:34;0.00;99.90
3996;DHT22;2012;49.794;9.722;2024-01-30T06:26:01;-0.10;99.90
3996;DHT22;2012;49.794;9.722;2024-01-30T06:28:27;-0.10;99.90
3996;DHT22;2012;49.794;9.722;2024-01-30T06:30:54;0.00;99.90
3996;DHT22;2012;49.794;9.722;2024-01-30T06:33:21;0.20;99.90
3996;DHT22;2012;49.794;9.722;2024-01-30T06:35:48;0.00;99.90
3996;DHT22;2012;49.794;9.722;2024-01-30T06:38:15;0.00;99.90
3996;DHT22;2012;49.794;9.722;2024-01-30T06:40:42;0.00;99.90
3996;DHT22;2012;49.794;9.722;2024-01-30T06:43:09;-0.10;99.90
3996;DHT22;2012;49.794;9.722;2024-01-30T06:45:36;-0.10;99.90
3996;DHT22;2012;49.794;9.722;2024-01-30T06:48:04;-0.20;99.90
3996;DHT22;2012;49.794;9.722;2024-01-30T06:50:31;-0.10;99.90
3996;DHT22;2012;49.794;9.722;2024-01-30T06:52:58;-0.20;99.90
3996;DHT22;2012;49.794;9.722;2024-01-30T06:55:24;-0.20;99.90
3996;DHT22;2012;49.794;9.722;2024-01-30T06:57:51;-0.20;99.90
3996;DHT22;2012;49.794;9.722;2024-01-30T07:00:18;-0.20;99.90
3996;DHT22;2012;49.794;9.722;2024-01-30T07:02:46;-0.20;99.90
3996;DHT22;2012;49.794;9.722;2024-01-30T07:05:13;-0.10;99.90
3996;DHT22;2012;49.794;9.722;2024-01-30T07:07:41;-0.10;99.90
3996;DHT22;2012;49.794;9.722;2024-01-30T07:10:08;-0.10;99.90
3996;DHT22;2012;49.794;9.722;2024-01-30T07:12:35;-0.20;99.90
3996;DHT22;2012;49.794;9.722;2024-01-30T07:15:02;-0.20;99.90
3996;DHT22;2012;49.794;9.722;2024-01-30T07:17:30;-0.20;99.90
3996;DHT22;2012;49.794;9.722;2024-01-30T07:19:56;-0.20;99.90
3996;DHT22;2012;49.794;9.722;2024-01-30T07:22:23;-0.30;99.90
3996;DHT22;2012;49.794;9.722;2024-01-30T07:24:50;-0.30;99.90
3996;DHT22;2012;49.794;9.722;2024-01-30T07:27:19;-0.20;99.90
3996;DHT22;2012;49.794;9.722;2024-01-30T07:29:45;-0.20;99.90
3996;DHT22;2012;49.794;9.722;2024-01-30T07:32:12;-0.20;99.90
3996;DHT22;2012;49.794;9.722;2024-01-30T07:34:39;-0.20;99.90
3996;DHT22;2012;49.794;9.722;2024-01-30T07:37:24;-0.20;99.90
3996;DHT22;2012;49.794;9.722;2024-01-30T07:39:51;-0.10;99.90
3996;DHT22;2012;49.794;9.722;2024-01-30T07:42:18;0.00;99.90
3996;DHT22;2012;49.794;9.722;2024-01-30T07:44:45;0.00;99.90
3996;DHT22;2012;49.794;9.722;2024-01-30T07:47:12;0.00;99.90
3996;DHT22;2012;49.794;9.722;2024-01-30T07:49:39;0.00;99.90
3996;DHT22;2012;49.794;9.722;2024-01-30T07:52:06;0.00;99.90
3996;DHT22;2012;49.794;9.722;2024-01-30T07:54:33;0.10;99.90
3996;DHT22;2012;49.794;9.722;2024-01-30T07:57:01;0.10;99.90
3996;DHT22;2012;49.794;9.722;2024-01-30T07:59:28;0.20;99.90
3996;DHT22;2012;49.794;9.722;2024-01-30T08:01:55;0.10;99.90
3996;DHT22;2012;49.794;9.722;2024-01-30T08:04:22;0.10;99.90
3996;DHT22;2012;49.794;9.722;2024-01-30T08:06:49;0.20;99.90
3996;DHT22;2012;49.794;9.722;2024-01-30T08:09:16;0.30;99.90
3996;DHT22;2012;49.794;9.722;2024-01-30T08:11:43;0.30;99.90
3996;DHT22;2012;49.794;9.722;2024-01-30T08:14:10;0.30;99.90
3996;DHT22;2012;49.794;9.722;2024-01-30T08:16:36;0.30;99.90
3996;DHT22;2012;49.794;9.722;2024-01-30T08:19:03;0.40;99.90
3996;DHT22;2012;49.794;9.722;2024-01-30T08:21:30;0.40;99.90
3996;DHT22;2012;49.794;9.722;2024-01-30T08:24:06;0.50;99.90
3996;DHT22;2012;49.794;9.722;2024-01-30T08:26:33;0.50;99.90
3996;DHT22;2012;49.794;9.722;2024-01-30T08:29:01;0.50;99.90
3996;DHT22;2012;49.794;9.722;2024-01-30T08:31:28;0.60;99.90
3996;DHT22;2012;49.794;9.722;2024-01-30T08:33:55;0.60;99.90
3996;DHT22;2012;49.794;9.722;2024-01-30T08:36:22;0.60;99.90
3996;DHT22;2012;49.794;9.722;2024-01-30T08:38:49;0.70;99.90
3996;DHT22;2012;49.794;9.722;2024-01-30T08:41:18;0.70;99.90
3996;DHT22;2012;49.794;9.722;2024-01-30T08:43:45;0.80;99.90
3996;DHT22;2012;49.794;9.722;2024-01-30T08:46:12;0.90;99.90
3996;DHT22;2012;49.794;9.722;2024-01-30T08:48:39;0.90;99.90
3996;DHT22;2012;49.794;9.722;2024-01-30T08:51:06;0.80;99.90
3996;DHT22;2012;49.794;9.722;2024-01-30T08:53:35;0.80;99.90
3996;DHT22;2012;49.794;9.722;2024-01-30T08:56:03;0.90;99.90
3996;DHT22;2012;49.794;9.722;2024-01-30T08:58:30;1.00;99.90
3996;DHT22;2012;49.794;9.722;2024-01-30T09:00:57;1.20;99.90
3996;DHT22;2012;49.794;9.722;2024-01-30T09:03:24;1.20;99.90
3996;DHT22;2012;49.794;9.722;2024-01-30T09:05:51;1.20;99.90
3996;DHT22;2012;49.794;9.722;2024-01-30T09:08:18;1.20;99.90
3996;DHT22;2012;49.794;9.722;2024-01-30T09:10:45;1.30;99.90
3996;DHT22;2012;49.794;9.722;2024-01-30T09:13:12;1.30;99.90
3996;DHT22;2012;49.794;9.722;2024-01-30T09:15:39;1.50;99.90
3996;DHT22;2012;49.794;9.722;2024-01-30T09:18:06;1.50;99.90
3996;DHT22;2012;49.794;9.722;2024-01-30T09:20:33;1.50;99.90
3996;DHT22;2012;49.794;9.722;2024-01-30T09:23:01;1.60;99.90
3996;DHT22;2012;49.794;9.722;2024-01-30T09:25:27;1.70;99.90
3996;DHT22;2012;49.794;9.722;2024-01-30T09:27:55;1.80;99.90
3996;DHT22;2012;49.794;9.722;2024-01-30T09:30:21;1.90;99.90
3996;DHT22;2012;49.794;9.722;2024-01-30T09:32:48;1.60;99.90
3996;DHT22;2012;49.794;9.722;2024-01-30T09:35:15;1.50;99.90
3996;DHT22;2012;49.794;9.722;2024-01-30T09:37:42;1.70;99.90
3996;DHT22;2012;49.794;9.722;2024-01-30T09:40:10;1.80;99.90
3996;DHT22;2012;49.794;9.722;2024-01-30T09:42:37;2.00;99.90
3996;DHT22;2012;49.794;9.722;2024-01-30T09:45:05;1.80;99.90
3996;DHT22;2012;49.794;9.722;2024-01-30T09:47:42;1.90;99.90
3996;DHT22;2012;49.794;9.722;2024-01-30T09:50:14;1.90;99.90
3996;DHT22;2012;49.794;9.722;2024-01-30T09:52:43;2.10;99.90
3996;DHT22;2012;49.794;9.722;2024-01-30T09:55:11;2.20;99.90
3996;DHT22;2012;49.794;9.722;2024-01-30T09:57:38;2.20;99.90
3996;DHT22;2012;49.794;9.722;2024-01-30T10:00:06;2.30;99.90
3996;DHT22;2012;49.794;9.722;2024-01-30T10:02:39;2.30;99.90
3996;DHT22;2012;49.794;9.722;2024-01-30T10:05:08;2.40;99.90
3996;DHT22;2012;49.794;9.722;2024-01-30T10:07:35;2.30;99.90
3996;DHT22;2012;49.794;9.722;2024-01-30T10:10:02;2.40;99.90
3996;DHT22;2012;49.794;9.722;2024-01-30T10:12:29;2.50;99.90
3996;DHT22;2012;49.794;9.722;2024-01-30T10:14:56;2.60;99.90
3996;DHT22;2012;49.794;9.722;2024-01-30T10:17:25;2.70;99.90
3996;DHT22;2012;49.794;9.722;2024-01-30T10:20:00;2.90;99.90
3996;DHT22;2012;49.794;9.722;2024-01-30T10:22:31;2.90;99.90
3996;DHT22;2012;49.794;9.722;2024-01-30T10:24:59;2.90;99.90
3996;DHT22;2012;49.794;9.722;2024-01-30T10:27:31;2.90;99.90
3996;DHT22;2012;49.794;9.722;2024-01-30T10:29:58;3.00;99.90
3996;DHT22;2012;49.794;9.722;2024-01-30T10:32:25;3.10;99.90
3996;DHT22;2012;49.794;9.722;2024-01-30T10:34:52;3.10;99.90
3996;DHT22;2012;49.794;9.722;2024-01-30T10:37:21;3.20;99.90
3996;DHT22;2012;49.794;9.722;2024-01-30T10:39:53;3.30;99.90
3996;DHT22;2012;49.794;9.722;2024-01-30T10:42:26;3.20;99.90
3996;DHT22;2012;49.794;9.722;2024-01-30T10:45:06;3.20;99.90
3996;DHT22;2012;49.794;9.722;2024-01-30T10:47:35;3.30;99.90
3996;DHT22;2012;49.794;9.722;2024-01-30T10:50:03;3.40;99.90
3996;DHT22;2012;49.794;9.722;2024-01-30T10:52:32;3.30;99.90
3996;DHT22;2012;49.794;9.722;2024-01-30T10:55:00;3.40;99.90
3996;DHT22;2012;49.794;9.722;2024-01-30T10:57:27;3.50;99.90
3996;DHT22;2012;49.794;9.722;2024-01-30T10:59:58;3.50;99.90
3996;DHT22;2012;49.794;9.722;2024-01-30T11:02:26;3.60;99.90
3996;DHT22;2012;49.794;9.722;2024-01-30T11:04:58;3.60;99.90
3996;DHT22;2012;49.794;9.722;2024-01-30T11:07:28;3.80;99.90
3996;DHT22;2012;49.794;9.722;2024-01-30T11:12:26;4.00;99.90
3996;DHT22;2012;49.794;9.722;2024-01-30T11:15:15;4.00;99.90
3996;DHT22;2012;49.794;9.722;2024-01-30T11:20:19;4.00;99.90
3996;DHT22;2012;49.794;9.722;2024-01-30T11:22:47;4.10;99.90
3996;DHT22;2012;49.794;9.722;2024-01-30T11:25:16;4.10;99.90
3996;DHT22;2012;49.794;9.722;2024-01-30T11:27:45;4.10;99.90
3996;DHT22;2012;49.794;9.722;2024-01-30T11:30:22;4.30;99.90
3996;DHT22;2012;49.794;9.722;2024-01-30T11:35:34;4.40;99.90
3996;DHT22;2012;49.794;9.722;2024-01-30T11:38:02;4.50;99.90
3996;DHT22;2012;49.794;9.722;2024-01-30T11:40:30;4.70;99.90
3996;DHT22;2012;49.794;9.722;2024-01-30T11:42:59;4.60;99.90
3996;DHT22;2012;49.794;9.722;2024-01-30T11:45:30;4.60;99.90
3996;DHT22;2012;49.794;9.722;2024-01-30T11:47:58;4.70;99.90
3996;DHT22;2012;49.794;9.722;2024-01-30T11:50:31;4.60;99.90
3996;DHT22;2012;49.794;9.722;2024-01-30T11:53:02;4.60;99.90
3996;DHT22;2012;49.794;9.722;2024-01-30T11:55:30;4.60;99.90
3996;DHT22;2012;49.794;9.722;2024-01-30T11:58:01;4.70;99.90
3996;DHT22;2012;49.794;9.722;2024-01-30T12:00:28;4.60;99.90
3996;DHT22;2012;49.794;9.722;2024-01-30T12:02:57;4.80;99.90
3996;DHT22;2012;49.794;9.722;2024-01-30T12:05:25;4.90;99.90
3996;DHT22;2012;49.794;9.722;2024-01-30T12:07:53;5.00;99.90
3996;DHT22;2012;49.794;9.722;2024-01-30T12:10:21;5.10;99.90
3996;DHT22;2012;49.794;9.722;2024-01-30T12:12:51;5.20;99.90
3996;DHT22;2012;49.794;9.722;2024-01-30T12:15:21;5.20;99.90
3996;DHT22;2012;49.794;9.722;2024-01-30T12:17:49;5.30;99.90
3996;DHT22;2012;49.794;9.722;2024-01-30T12:20:19;5.40;99.90
3996;DHT22;2012;49.794;9.722;2024-01-30T12:22:49;5.40;99.90
3996;DHT22;2012;49.794;9.722;2024-01-30T12:25:18;5.70;99.90
3996;DHT22;2012;49.794;9.722;2024-01-30T12:27:47;5.90;99.90
3996;DHT22;2012;49.794;9.722;2024-01-30T12:30:18;6.00;99.90
3996;DHT22;2012;49.794;9.722;2024-01-30T12:32:47;5.90;99.90
3996;DHT22;2012;49.794;9.722;2024-01-30T12:35:16;6.00;99.90
3996;DHT22;2012;49.794;9.722;2024-01-30T12:37:45;5.90;99.90
3996;DHT22;2012;49.794;9.722;2024-01-30T12:40:13;5.90;99.90
3996;DHT22;2012;49.794;9.722;2024-01-30T12:42:42;5.80;99.90
3996;DHT22;2012;49.794;9.722;2024-01-30T12:45:09;5.90;99.90
3996;DHT22;2012;49.794;9.722;2024-01-30T12:47:36;5.80;99.90
3996;DHT22;2012;49.794;9.722;2024-01-30T12:50:03;5.80;99.90
3996;DHT22;2012;49.794;9.722;2024-01-30T12:52:31;5.80;99.90
3996;DHT22;2012;49.794;9.722;2024-01-30T12:54:58;5.80;99.90
3996;DHT22;2012;49.794;9.722;2024-01-30T12:57:25;5.90;99.90
3996;DHT22;2012;49.794;9.722;2024-01-30T12:59:52;5.80;99.90
3996;DHT22;2012;49.794;9.722;2024-01-30T13:02:19;5.90;99.90
3996;DHT22;2012;49.794;9.722;2024-01-30T13:04:46;5.90;99.90
3996;DHT22;2012;49.794;9.722;2024-01-30T13:07:16;6.00;99.90
3996;DHT22;2012;49.794;9.722;2024-01-30T13:09:43;6.10;99.90
3996;DHT22;2012;49.794;9.722;2024-01-30T13:12:10;6.10;99.90
3996;DHT22;2012;49.794;9.722;2024-01-30T13:14:37;6.10;99.90
3996;DHT22;2012;49.794;9.722;2024-01-30T13:17:04;6.10;99.90
3996;DHT22;2012;49.794;9.722;2024-01-30T13:19:31;6.10;99.90
3996;DHT22;2012;49.794;9.722;2024-01-30T13:21:58;6.10;99.90
3996;DHT22;2012;49.794;9.722;2024-01-30T13:24:25;6.10;99.90
3996;DHT22;2012;49.794;9.722;2024-01-30T13:26:52;6.10;99.90
3996;DHT22;2012;49.794;9.722;2024-01-30T13:29:19;6.20;99.90
3996;DHT22;2012;49.794;9.722;2024-01-30T13:31:46;6.30;99.90
3996;DHT22;2012;49.794;9.722;2024-01-30T13:34:13;6.40;99.90
3996;DHT22;2012;49.794;9.722;2024-01-30T13:36:43;6.50;99.90
3996;DHT22;2012;49.794;9.722;2024-01-30T13:39:11;6.70;99.90
3996;DHT22;2012;49.794;9.722;2024-01-30T13:41:39;6.90;99.90
3996;DHT22;2012;49.794;9.722;2024-01-30T13:44:06;7.00;99.90
3996;DHT22;2012;49.794;9.722;2024-01-30T13:46:33;7.20;99.90
3996;DHT22;2012;49.794;9.722;2024-01-30T13:49:00;7.20;99.90
3996;DHT22;2012;49.794;9.722;2024-01-30T13:51:28;7.30;99.90
3996;DHT22;2012;49.794;9.722;2024-01-30T13:53:55;7.40;99.90
3996;DHT22;2012;49.794;9.722;2024-01-30T13:56:22;7.40;99.90
3996;DHT22;2012;49.794;9.722;2024-01-30T13:58:49;7.50;99.90
3996;DHT22;2012;49.794;9.722;2024-01-30T14:01:19;7.50;99.90
3996;DHT22;2012;49.794;9.722;2024-01-30T14:03:46;7.40;99.90
3996;DHT22;2012;49.794;9.722;2024-01-30T14:06:13;7.30;99.90
3996;DHT22;2012;49.794;9.722;2024-01-30T14:08:40;7.30;99.90
3996;DHT22;2012;49.794;9.722;2024-01-30T14:11:12;7.30;99.90
3996;DHT22;2012;49.794;9.722;2024-01-30T14:13:38;7.30;99.90
3996;DHT22;2012;49.794;9.722;2024-01-30T14:16:06;7.30;99.90
3996;DHT22;2012;49.794;9.722;2024-01-30T14:18:34;7.30;99.90
3996;DHT22;2012;49.794;9.722;2024-01-30T14:21:00;7.30;99.90
3996;DHT22;2012;49.794;9.722;2024-01-30T14:23:27;7.10;99.90
3996;DHT22;2012;49.794;9.722;2024-01-30T14:25:54;7.00;99.90
3996;DHT22;2012;49.794;9.722;2024-01-30T14:28:21;7.10;99.90
3996;DHT22;2012;49.794;9.722;2024-01-30T14:30:48;7.10;99.90
3996;DHT22;2012;49.794;9.722;2024-01-30T14:33:15;7.10;99.90
3996;DHT22;2012;49.794;9.722;2024-01-30T14:35:42;7.20;99.90
3996;DHT22;2012;49.794;9.722;2024-01-30T14:38:09;7.20;99.90
3996;DHT22;2012;49.794;9.722;2024-01-30T14:40:38;7.20;99.90
3996;DHT22;2012;49.794;9.722;2024-01-30T14:43:05;7.20;99.90
3996;DHT22;2012;49.794;9.722;2024-01-30T14:45:32;7.10;99.90
3996;DHT22;2012;49.794;9.722;2024-01-30T14:47:59;7.00;99.90
3996;DHT22;2012;49.794;9.722;2024-01-30T14:50:26;7.00;99.90
3996;DHT22;2012;49.794;9.722;2024-01-30T14:52:55;7.00;99.90
3996;DHT22;2012;49.794;9.722;2024-01-30T14:55:22;7.10;99.90
3996;DHT22;2012;49.794;9.722;2024-01-30T14:57:49;7.00;99.90
3996;DHT22;2012;49.794;9.722;2024-01-30T15:00:16;6.90;99.90
3996;DHT22;2012;49.794;9.722;2024-01-30T15:02:44;7.00;99.90
3996;DHT22;2012;49.794;9.722;2024-01-30T15:05:13;6.90;99.90
3996;DHT22;2012;49.794;9.722;2024-01-30T15:07:40;6.70;99.90
3996;DHT22;2012;49.794;9.722;2024-01-30T15:10:08;6.60;99.90
3996;DHT22;2012;49.794;9.722;2024-01-30T15:12:37;6.70;99.90
3996;DHT22;2012;49.794;9.722;2024-01-30T15:15:07;6.70;99.90
3996;DHT22;2012;49.794;9.722;2024-01-30T15:17:35;6.60;99.90
3996;DHT22;2012;49.794;9.722;2024-01-30T15:20:02;6.60;99.90
3996;DHT22;2012;49.794;9.722;2024-01-30T15:22:30;6.50;99.90
3996;DHT22;2012;49.794;9.722;2024-01-30T15:24:57;6.50;99.90
3996;DHT22;2012;49.794;9.722;2024-01-30T15:27:24;6.20;99.90
3996;DHT22;2012;49.794;9.722;2024-01-30T15:29:55;6.20;99.90
3996;DHT22;2012;49.794;9.722;2024-01-30T15:32:22;6.20;99.90
3996;DHT22;2012;49.794;9.722;2024-01-30T15:34:49;6.30;99.90
3996;DHT22;2012;49.794;9.722;2024-01-30T15:37:16;6.30;99.90
3996;DHT22;2012;49.794;9.722;2024-01-30T15:39:43;6.20;99.90
3996;DHT22;2012;49.794;9.722;2024-01-30T15:42:10;6.20;99.90
3996;DHT22;2012;49.794;9.722;2024-01-30T15:44:37;6.10;99.90
3996;DHT22;2012;49.794;9.722;2024-01-30T15:47:04;6.20;99.90
3996;DHT22;2012;49.794;9.722;2024-01-30T15:49:31;6.20;99.90
3996;DHT22;2012;49.794;9.722;2024-01-30T15:51:58;6.00;99.90
3996;DHT22;2012;49.794;9.722;2024-01-30T15:54:25;5.80;99.90
3996;DHT22;2012;49.794;9.722;2024-01-30T15:56:52;7.70;99.90
3996;DHT22;2012;49.794;9.722;2024-01-30T15:59:19;9.80;99.90
3996;DHT22;2012;49.794;9.722;2024-01-30T16:01:47;10.40;99.90
3996;DHT22;2012;49.794;9.722;2024-01-30T16:04:16;9.30;99.90
3996;DHT22;2012;49.794;9.722;2024-01-30T16:06:44;7.50;99.90
3996;DHT22;2012;49.794;9.722;2024-01-30T16:09:11;6.70;99.90
3996;DHT22;2012;49.794;9.722;2024-01-30T16:11:38;6.40;99.90
3996;DHT22;2012;49.794;9.722;2024-01-30T16:14:05;6.40;99.90
3996;DHT22;2012;49.794;9.722;2024-01-30T16:16:33;6.20;99.90
3996;DHT22;2012;49.794;9.722;2024-01-30T16:19:00;6.00;99.90
3996;DHT22;2012;49.794;9.722;2024-01-30T16:21:27;5.90;99.90
3996;DHT22;2012;49.794;9.722;2024-01-30T16:23:54;5.70;99.90
3996;DHT22;2012;49.794;9.722;2024-01-30T16:26:22;5.60;99.90